Here is the Quick Look data you requested

The Data originates at the National Weather Service, and is made available here by the UAlbany Department of Atmospheric and Environmental Sciences

Surface Observations

KHGR 180153Z 15009KT 10SM BKN022 OVC038 01/M02 A2986 RMK AO2
 UPB00E14B48E49RAB14E50 SLP130 P0001 T00061022=
KHGR 180253Z 13005KT 10SM -RA BKN015 OVC024 01/M02 A2986 RMK AO2 UPB21E25RAB25
 SLP130 P0001 60002 T00111017 56014=
KHGR 180303Z AUTO 15009KT 9SM -RA BKN012 OVC023 01/M02 A2986 RMK AO2 P0000
 T00111017=
KHGR 180340Z AUTO 16009KT 10SM OVC009 01/M01 A2986 RMK AO2 RAE09UPB09E17 P0000
 T00111011=
KHGR 180353Z AUTO 14007KT 10SM OVC009 01/M02 A2983 RMK AO2 RAE09UPB09E17 SLP118
 P0000 T00111017=
KHGR 180453Z AUTO 16005KT 7SM OVC007 01/M01 A2982 RMK AO2 SLP114 T00111011
 400221044=
KHGR 180553Z AUTO 17010KT 6SM BR OVC006 02/00 A2980 RMK AO2 SLP106 60002
 T00170000 10022 20006 56022=
KHGR 180653Z AUTO 18007KT 4SM BR OVC005 02/00 A2978 RMK AO2 SLP101 T00220000=
KHGR 180753Z AUTO 00000KT 6SM BR OVC005 02/01 A2976 RMK AO2 SLP093 T00220006=
KHGR 180802Z AUTO 30004KT 1 3/4SM BR OVC005 02/00 A2975 RMK AO2 T00170000=
KHGR 180806Z AUTO 29004KT 3/4SM BR OVC004 02/00 A2977 RMK AO2 T00170000=
KHGR 180844Z AUTO 00000KT 1 1/2SM BR OVC003 01/00 A2977 RMK AO2 T00110000=
KHGR 180853Z AUTO 00000KT 1 1/2SM BR OVC003 02/00 A2977 RMK AO2 SLP098
 T00170000 55007=
KHGR 180918Z AUTO 00000KT 2 1/2SM BR OVC003 02/00 A2976 RMK AO2 T00170000=
KHGR 180951Z AUTO 31005KT 1 1/2SM BR OVC003 02/00 A2979 RMK AO2=
KHGR 180853Z AUTO 00000KT 1 1/2SM BR OVC003 02/00 A2977 RMK AO2 SLP098
 T00170000 55007=
KHGR 180953Z AUTO 32005KT 1 1/2SM BR OVC003 02/00 A2979 RMK AO2 SLP102
 T00170000=
KHGR 181002Z AUTO 34004KT 2 1/2SM BR OVC003 02/00 A2979 RMK AO2 T00170000=
KHGR 181018Z AUTO 02003KT 3SM BR SCT003 OVC039 02/00 A2979 RMK AO2 T00170000=
KHGR 181053Z AUTO 09004KT 3SM BR SCT041 02/00 A2980 RMK AO2 SLP106 T00170000=
KHGR 181100Z AUTO 12003KT 2 1/2SM BR SCT036 02/00 A2980 RMK AO2 T00170000=
KHGR 181107Z AUTO 00000KT 4SM BR BKN034 02/00 A2980 RMK AO2 T00170000=
KHGR 181153Z AUTO 26007KT 10SM BKN039 03/00 A2980 RMK AO2 SLP107 70002
 T00330000 10033 20011 53005=
KHGR 181253Z 26007KT 10SM BKN040 04/00 A2985 RMK AO2 SLP123 T00440000=
KHGR 181300Z 27009KT 10SM OVC039 04/00 A2986 RMK AO2 T00440000=
KHGR 181353Z 27009KT 10SM OVC033 05/M01 A2990 RMK AO2 SLP140 T00501006=
KHGR 181453Z 28022G27KT 10SM OVC040 05/M02 A2992 RMK AO2 PK WND 29027/1449
 SLP148 T00501022 51040=
KHGR 181553Z 28016G26KT 10SM BKN038 OVC048 04/M03 A2997 RMK AO2 PK WND
 26029/1505 SLP165 T00441033=
KHGR 181653Z 28010KT 10SM OVC045 04/M04 A3001 RMK AO2 PK WND 28027/1627 SLP179
 T00441039=
KHGR 181753Z 28014G23KT 10SM OVC048 05/M04 A3002 RMK AO2 SLP181 T00501044 10050
 20033 51033=
KHGR 181853Z 31015G20KT 10SM OVC046 04/M04 A3004 RMK AO2 SLP186 T00441044=
KHGR 181953Z 29020KT 10SM OVC047 04/M05 A3008 RMK AO2 PK WND 29032/1943 SLP201
 T00391050=
KHGR 182053Z 29021G27KT 10SM OVC043 03/M06 A3012 RMK AO2 PK WND 29027/2049
 SLP214 T00331061 53033=
KHGR 182153Z 29020G29KT 10SM BKN046 OVC055 03/M07 A3015 RMK AO2 PK WND
 29031/2102 SLP226 T00331067=
KHGR 182253Z 32014KT 10SM OVC043 02/M06 A3020 RMK AO2 PK WND 29026/2157 SLP243
 T00221061=
KHGR 182353Z 31016KT 10SM OVC045 02/M07 A3025 RMK AO2 SLP259 T00171067 10050
 20017 53043=
KHGR 190053Z 34007KT 10SM OVC037 01/M07 A3030 RMK AO2 SLP275 T00111067=
KHGR 190153Z 31013KT 10SM OVC037 01/M06 A3033 RMK AO2 SLP287 T00111061=
KHGR 190253Z 33014KT 10SM BKN040 01/M07 A3035 RMK AO2 SLP294 T00061072 51034=
KHGR 190353Z AUTO 32009KT 10SM OVC039 M01/M07 A3039 RMK AO2 SLP308 T10061072=
KHGR 190453Z AUTO 32012KT 10SM OVC037 M01/M08 A3042 RMK AO2 SLP317 T10061083
 400501006=
KHGR 190553Z AUTO 31009KT 10SM CLR M02/M09 A3044 RMK AO2 SLP325 T10171089 10017
 21017 51029=
KHGR 190653Z AUTO 33012KT 10SM CLR M03/M11 A3046 RMK AO2 SLP333 T10281106=
KHGR 190753Z AUTO 32012KT 10SM CLR M03/M11 A3048 RMK AO2 SLP340 T10331106=